createdAt,value
2022-11-30T00:01:29.573Z,6.33
2022-11-30T00:03:46.606Z,6.33
2022-11-30T00:06:03.680Z,6.33
2022-11-30T00:08:20.698Z,6.33
2022-11-30T00:10:38.096Z,6.32
2022-11-30T00:12:55.174Z,6.30
2022-11-30T00:15:13.496Z,6.32
2022-11-30T00:17:31.759Z,6.32
2022-11-30T00:19:50.091Z,6.32
2022-11-30T00:22:07.472Z,6.32
2022-11-30T00:24:24.585Z,6.34
2022-11-30T00:26:41.596Z,6.37
2022-11-30T00:28:58.639Z,6.41
2022-11-30T00:31:15.913Z,6.39
2022-11-30T00:33:33.011Z,6.38
2022-11-30T00:35:50.010Z,6.38
2022-11-30T00:38:06.917Z,6.37
2022-11-30T00:40:24.103Z,6.36
2022-11-30T00:42:41.113Z,6.36
2022-11-30T00:44:58.401Z,6.35
2022-11-30T00:47:16.396Z,6.35
2022-11-30T00:49:33.302Z,6.38
2022-11-30T00:51:50.548Z,6.37
2022-11-30T00:54:07.826Z,6.37
2022-11-30T00:56:25.079Z,6.40
2022-11-30T00:58:42.463Z,6.42
2022-11-30T01:01:00.484Z,6.38
2022-11-30T01:03:18.205Z,6.37
2022-11-30T01:05:35.573Z,6.42
2022-11-30T01:07:52.550Z,6.41
2022-11-30T01:10:09.660Z,6.38
2022-11-30T01:12:26.904Z,6.37
2022-11-30T01:14:44.653Z,6.36
2022-11-30T01:17:02.149Z,6.37
2022-11-30T01:19:19.552Z,6.38
2022-11-30T01:21:36.575Z,6.39
2022-11-30T01:23:55.270Z,6.37
2022-11-30T01:26:12.665Z,6.35
2022-11-30T01:28:29.760Z,6.33
2022-11-30T01:30:47.110Z,6.31
2022-11-30T01:33:06.935Z,6.30
2022-11-30T01:35:24.202Z,6.29
2022-11-30T01:37:41.555Z,6.29
2022-11-30T01:39:58.658Z,6.28
2022-11-30T01:42:16.077Z,6.28
2022-11-30T01:44:33.443Z,6.28
2022-11-30T01:46:50.513Z,6.28
2022-11-30T01:49:07.521Z,6.33
2022-11-30T01:51:24.470Z,6.32
2022-11-30T01:53:41.414Z,6.30
2022-11-30T01:55:58.723Z,6.29
2022-11-30T01:58:15.814Z,6.29
2022-11-30T02:00:33.559Z,6.29
2022-11-30T02:02:50.959Z,6.31
2022-11-30T02:05:08.037Z,6.29
2022-11-30T02:07:25.415Z,6.30
2022-11-30T02:09:42.722Z,6.28
2022-11-30T02:11:59.733Z,6.29
2022-11-30T02:14:16.674Z,6.29
2022-11-30T02:16:33.968Z,6.29
2022-11-30T02:18:50.933Z,6.30
2022-11-30T02:21:08.206Z,6.32
2022-11-30T02:23:25.287Z,6.32
2022-11-30T02:25:43.526Z,6.36
2022-11-30T02:28:00.458Z,6.36
2022-11-30T02:30:17.605Z,6.35
2022-11-30T02:32:34.565Z,6.36
2022-11-30T02:34:51.765Z,6.34
2022-11-30T02:37:09.108Z,6.38
2022-11-30T02:39:27.640Z,6.41
2022-11-30T02:41:44.902Z,6.41
2022-11-30T02:44:01.921Z,6.41
2022-11-30T02:46:18.900Z,6.41
2022-11-30T02:48:35.930Z,6.40
2022-11-30T02:50:53.249Z,6.42
2022-11-30T02:53:10.229Z,6.42
2022-11-30T02:55:27.486Z,6.42
2022-11-30T02:57:44.760Z,6.43
2022-11-30T03:00:02.014Z,6.44
2022-11-30T03:02:19.314Z,6.47
2022-11-30T03:04:37.647Z,6.47
2022-11-30T03:06:54.692Z,6.47
2022-11-30T03:09:11.943Z,6.46
2022-11-30T03:11:29.250Z,6.44
2022-11-30T03:13:46.617Z,6.46
2022-11-30T03:16:03.545Z,6.48
2022-11-30T03:18:20.633Z,6.50
2022-11-30T03:20:37.522Z,6.51
2022-11-30T03:22:54.465Z,6.52
2022-11-30T03:25:11.465Z,6.52
2022-11-30T03:27:29.504Z,6.52
2022-11-30T03:29:47.521Z,6.53
2022-11-30T03:32:04.396Z,6.54
2022-11-30T03:34:21.993Z,6.55
2022-11-30T03:36:39.062Z,6.56
2022-11-30T03:38:57.402Z,6.53
2022-11-30T03:41:15.326Z,6.53
2022-11-30T03:43:32.212Z,6.52
2022-11-30T03:45:49.430Z,6.52
2022-11-30T03:48:06.709Z,6.53
2022-11-30T03:50:23.644Z,6.53
2022-11-30T03:52:40.627Z,6.52
2022-11-30T03:54:57.676Z,6.53
2022-11-30T03:57:14.559Z,6.53
2022-11-30T03:59:31.802Z,6.52
2022-11-30T04:01:48.746Z,6.52
2022-11-30T04:04:05.730Z,6.52
2022-11-30T04:06:22.817Z,6.53
2022-11-30T04:08:39.748Z,6.54
2022-11-30T04:10:56.764Z,6.52
2022-11-30T04:13:13.796Z,6.52
2022-11-30T04:15:30.839Z,6.49
2022-11-30T04:17:48.874Z,6.52
2022-11-30T04:20:05.947Z,6.55
2022-11-30T04:22:23.265Z,6.54
2022-11-30T04:24:41.443Z,6.52
2022-11-30T04:26:58.317Z,6.52
2022-11-30T04:29:16.300Z,6.52
2022-11-30T04:31:33.287Z,6.53
2022-11-30T04:33:50.373Z,6.52
2022-11-30T04:36:07.254Z,6.52
2022-11-30T04:38:24.271Z,6.52
2022-11-30T04:40:41.244Z,6.52
2022-11-30T04:42:58.160Z,6.49
2022-11-30T04:45:15.505Z,6.50
2022-11-30T04:47:32.530Z,6.51
2022-11-30T04:49:49.509Z,6.53
2022-11-30T04:52:06.756Z,6.51
2022-11-30T04:54:24.280Z,6.52
2022-11-30T04:56:41.256Z,6.52
2022-11-30T04:58:58.150Z,6.51
2022-11-30T05:01:16.328Z,6.52
2022-11-30T05:03:34.284Z,6.52
2022-11-30T05:05:51.547Z,6.52
2022-11-30T05:08:08.553Z,6.56
2022-11-30T05:10:26.797Z,6.56
2022-11-30T05:12:44.135Z,6.56
2022-11-30T05:15:00.970Z,6.53
2022-11-30T05:17:18.234Z,6.56
2022-11-30T05:19:35.190Z,6.56
2022-11-30T05:21:52.270Z,6.57
2022-11-30T05:24:09.328Z,6.57
2022-11-30T05:26:26.256Z,6.58
2022-11-30T05:28:43.296Z,6.59
2022-11-30T05:31:00.261Z,6.59
2022-11-30T05:33:17.244Z,6.58
2022-11-30T05:35:34.314Z,6.59
2022-11-30T05:37:52.382Z,6.60
2022-11-30T05:40:09.330Z,6.61
2022-11-30T05:42:26.653Z,6.61
2022-11-30T05:44:43.723Z,6.60
2022-11-30T05:47:00.731Z,6.61
2022-11-30T05:49:17.795Z,6.61
2022-11-30T05:51:34.783Z,6.61
2022-11-30T05:53:51.764Z,6.62
2022-11-30T05:56:09.107Z,6.63
2022-11-30T05:58:27.075Z,6.62
2022-11-30T06:00:44.030Z,6.62
2022-11-30T06:03:01.481Z,6.63
2022-11-30T06:05:18.874Z,6.64
2022-11-30T06:07:36.211Z,6.65
2022-11-30T06:09:53.225Z,6.65
2022-11-30T06:12:10.564Z,6.65
2022-11-30T06:14:27.617Z,6.65
2022-11-30T06:16:44.903Z,6.64
2022-11-30T06:19:03.295Z,6.65
2022-11-30T06:21:24.446Z,6.66
2022-11-30T06:23:42.034Z,6.65
2022-11-30T06:25:59.287Z,6.65
2022-11-30T06:28:16.231Z,6.64
2022-11-30T06:30:33.143Z,6.65
2022-11-30T06:32:50.185Z,6.63
2022-11-30T06:35:07.239Z,6.63
2022-11-30T06:37:25.295Z,6.65
2022-11-30T06:42:19.487Z,6.66
2022-11-30T06:44:36.504Z,6.65
2022-11-30T06:46:53.569Z,6.66
2022-11-30T06:49:10.500Z,6.66
2022-11-30T06:51:27.483Z,6.67
2022-11-30T06:53:44.819Z,6.66
2022-11-30T06:56:05.321Z,6.67
2022-11-30T06:58:26.973Z,6.69
2022-11-30T07:00:44.353Z,6.69
2022-11-30T07:03:02.271Z,6.67
2022-11-30T07:05:19.475Z,6.67
2022-11-30T07:07:36.857Z,6.66
2022-11-30T07:09:54.220Z,6.67
2022-11-30T07:12:12.235Z,6.69
2022-11-30T07:14:29.556Z,6.71
2022-11-30T07:16:46.566Z,6.70
2022-11-30T07:19:03.832Z,6.72
2022-11-30T07:21:20.856Z,6.74
2022-11-30T07:23:37.752Z,6.75
2022-11-30T07:25:54.645Z,6.76
2022-11-30T07:28:11.706Z,6.78
2022-11-30T07:30:28.751Z,6.77
2022-11-30T07:32:45.792Z,6.78
2022-11-30T07:35:03.044Z,6.78
2022-11-30T07:37:20.302Z,6.78
2022-11-30T07:39:37.508Z,6.79
2022-11-30T07:41:54.802Z,6.79
2022-11-30T07:44:11.734Z,6.80
2022-11-30T07:46:29.605Z,6.83
2022-11-30T07:48:46.552Z,6.84
2022-11-30T07:51:03.487Z,6.86
2022-11-30T07:53:20.429Z,6.86
2022-11-30T07:55:37.357Z,6.88
2022-11-30T07:57:54.398Z,6.89
2022-11-30T08:00:11.377Z,6.88
2022-11-30T08:02:28.504Z,6.90
2022-11-30T08:04:46.250Z,6.94
2022-11-30T08:07:03.792Z,6.96
2022-11-30T08:09:21.170Z,6.97
2022-11-30T08:11:38.426Z,7.02
2022-11-30T08:13:56.718Z,7.02
2022-11-30T08:16:13.711Z,7.02
2022-11-30T08:18:31.053Z,7.02
2022-11-30T08:20:50.112Z,7.04
2022-11-30T08:23:07.360Z,7.08
2022-11-30T08:25:24.662Z,7.07
2022-11-30T08:27:41.708Z,7.14
2022-11-30T08:29:58.790Z,7.16
2022-11-30T08:32:15.828Z,7.17
2022-11-30T08:34:32.805Z,7.18
2022-11-30T08:36:51.925Z,7.24
2022-11-30T08:39:09.048Z,7.25
2022-11-30T08:41:25.956Z,7.26
2022-11-30T08:43:42.983Z,7.28
2022-11-30T08:46:00.133Z,7.30
2022-11-30T08:48:17.197Z,7.37
2022-11-30T08:50:34.261Z,7.44
2022-11-30T08:52:51.248Z,7.51
2022-11-30T08:55:08.388Z,7.46
2022-11-30T08:57:25.658Z,7.54
2022-11-30T08:59:42.760Z,7.53
2022-11-30T09:01:59.830Z,7.42
2022-11-30T09:04:16.800Z,7.38
2022-11-30T09:06:33.800Z,7.39
2022-11-30T09:08:51.719Z,7.43
2022-11-30T09:11:08.951Z,7.43
2022-11-30T09:13:26.067Z,7.42
2022-11-30T09:15:43.212Z,7.42
2022-11-30T09:18:00.265Z,7.43
2022-11-30T09:20:17.635Z,7.47
2022-11-30T09:22:35.825Z,7.59
2022-11-30T09:24:52.824Z,7.56
2022-11-30T09:27:10.170Z,7.53
2022-11-30T09:29:27.213Z,7.55
2022-11-30T09:31:44.091Z,7.59
2022-11-30T09:34:00.986Z,7.58
2022-11-30T09:36:18.317Z,7.55
2022-11-30T09:38:35.378Z,7.54
2022-11-30T09:40:55.087Z,7.59
2022-11-30T09:43:12.301Z,7.61
2022-11-30T09:45:30.660Z,7.63
2022-11-30T09:47:47.665Z,7.63
2022-11-30T09:50:05.008Z,7.65
2022-11-30T09:52:21.982Z,7.65
2022-11-30T09:54:38.898Z,7.65
2022-11-30T09:56:57.134Z,7.70
2022-11-30T09:59:14.424Z,7.68
2022-11-30T10:01:33.012Z,7.75
2022-11-30T10:03:51.128Z,7.77
2022-11-30T10:06:08.092Z,7.77
2022-11-30T10:08:25.015Z,7.77
2022-11-30T10:10:41.928Z,7.85
2022-11-30T10:12:58.975Z,7.85
2022-11-30T10:15:15.996Z,7.87
2022-11-30T10:17:33.266Z,7.89
2022-11-30T10:19:50.313Z,7.94
2022-11-30T10:22:07.238Z,8.02
2022-11-30T10:24:24.306Z,8.05
2022-11-30T10:26:41.340Z,8.03
2022-11-30T10:28:58.333Z,8.17
2022-11-30T10:31:15.690Z,8.23
2022-11-30T10:33:38.163Z,8.20
2022-11-30T10:35:55.822Z,8.19
2022-11-30T10:38:12.793Z,8.10
2022-11-30T10:40:30.184Z,8.10
2022-11-30T10:42:47.528Z,8.15
2022-11-30T10:45:05.519Z,8.19
2022-11-30T10:47:22.814Z,8.23
2022-11-30T10:49:39.774Z,8.38
2022-11-30T10:51:57.131Z,8.42
2022-11-30T10:54:14.165Z,8.40
2022-11-30T10:56:31.481Z,8.40
2022-11-30T10:58:48.585Z,8.40
2022-11-30T11:01:05.656Z,8.39
2022-11-30T11:03:23.745Z,8.46
2022-11-30T11:05:41.040Z,8.30
2022-11-30T11:08:01.459Z,8.29
2022-11-30T11:10:20.326Z,8.29
2022-11-30T11:12:37.242Z,8.37
2022-11-30T11:14:54.484Z,8.38
2022-11-30T11:17:12.375Z,8.42
2022-11-30T11:19:29.288Z,8.45
2022-11-30T11:21:46.218Z,8.48
2022-11-30T11:24:03.119Z,8.61
2022-11-30T11:26:20.180Z,8.56
2022-11-30T11:28:37.230Z,8.55
2022-11-30T11:30:54.179Z,8.50
2022-11-30T11:33:11.222Z,8.55
2022-11-30T11:35:28.383Z,8.49
2022-11-30T11:37:45.352Z,8.49
2022-11-30T11:40:02.457Z,8.52
2022-11-30T11:42:22.121Z,8.57
2022-11-30T11:44:39.870Z,8.65
2022-11-30T11:46:57.078Z,8.53
2022-11-30T11:49:14.383Z,8.52
2022-11-30T11:51:31.326Z,8.55
2022-11-30T11:53:53.350Z,8.51
2022-11-30T11:56:11.087Z,8.53
2022-11-30T11:58:28.134Z,8.51
2022-11-30T12:00:45.461Z,8.47
2022-11-30T12:03:02.810Z,8.47
2022-11-30T12:05:20.867Z,8.46
2022-11-30T12:07:38.177Z,8.42
2022-11-30T12:09:55.239Z,8.38
2022-11-30T12:12:12.536Z,8.37
2022-11-30T12:14:29.488Z,8.37
2022-11-30T12:16:46.406Z,8.35
2022-11-30T12:19:03.746Z,8.28
2022-11-30T12:21:21.078Z,8.28
2022-11-30T12:23:39.192Z,8.33
2022-11-30T12:25:56.704Z,8.28
2022-11-30T12:28:13.792Z,8.28
2022-11-30T12:30:31.027Z,8.29
2022-11-30T12:32:47.956Z,8.29
2022-11-30T12:35:05.301Z,8.30
2022-11-30T12:37:22.327Z,8.23
2022-11-30T12:39:39.364Z,8.20
2022-11-30T12:41:56.699Z,8.14
2022-11-30T12:44:13.966Z,8.10
2022-11-30T12:46:31.041Z,8.17
2022-11-30T12:48:48.090Z,8.09
2022-11-30T12:51:05.099Z,8.09
2022-11-30T12:53:22.380Z,8.07
2022-11-30T12:55:39.573Z,8.17
2022-11-30T12:57:56.820Z,8.13
2022-11-30T13:00:14.142Z,8.11
2022-11-30T13:02:31.106Z,8.17
2022-11-30T13:04:51.913Z,8.15
2022-11-30T13:07:13.840Z,8.20
2022-11-30T13:09:31.781Z,8.30
2022-11-30T13:11:49.356Z,8.23
2022-11-30T13:14:06.387Z,8.22
2022-11-30T13:16:23.601Z,8.18
2022-11-30T13:18:41.760Z,8.14
2022-11-30T13:21:04.860Z,8.13
2022-11-30T13:23:23.517Z,8.13
2022-11-30T13:28:17.474Z,8.13
2022-11-30T13:30:34.917Z,8.10
2022-11-30T13:32:59.426Z,8.10
2022-11-30T13:35:16.623Z,8.20
2022-11-30T13:37:33.913Z,8.11
2022-11-30T13:39:52.566Z,8.07
2022-11-30T13:42:09.533Z,8.07
2022-11-30T13:44:26.931Z,8.06
2022-11-30T13:46:44.061Z,8.03
2022-11-30T13:49:01.209Z,8.07
2022-11-30T13:51:18.266Z,8.07
2022-11-30T13:53:35.282Z,8.10
2022-11-30T13:55:52.441Z,8.11
2022-11-30T13:58:09.399Z,8.08
2022-11-30T14:00:26.420Z,8.17
2022-11-30T14:02:43.401Z,8.08
2022-11-30T14:05:00.436Z,8.04
2022-11-30T14:07:17.545Z,8.00
2022-11-30T14:09:34.587Z,7.97
2022-11-30T14:11:51.548Z,7.94
2022-11-30T14:14:08.531Z,7.90
2022-11-30T14:16:25.580Z,7.89
2022-11-30T14:18:42.669Z,7.87
2022-11-30T14:20:59.958Z,7.86
2022-11-30T14:23:17.034Z,7.83
2022-11-30T14:25:33.968Z,7.84
2022-11-30T14:27:51.040Z,7.88
2022-11-30T14:30:08.313Z,7.86
2022-11-30T14:32:25.621Z,7.85
2022-11-30T14:34:42.555Z,7.85
2022-11-30T14:36:59.545Z,7.77
2022-11-30T14:39:16.860Z,7.72
2022-11-30T14:41:34.704Z,7.74
2022-11-30T14:43:52.921Z,7.75
2022-11-30T14:46:15.677Z,7.78
2022-11-30T14:48:32.895Z,7.72
2022-11-30T14:50:50.215Z,7.68
2022-11-30T14:53:07.159Z,7.71
2022-11-30T14:55:24.073Z,7.68
2022-11-30T14:57:41.357Z,7.54
2022-11-30T14:59:58.587Z,7.50
2022-11-30T15:02:15.977Z,7.48
2022-11-30T15:04:32.930Z,7.47
2022-11-30T15:06:50.231Z,7.47
2022-11-30T15:09:07.751Z,7.46
2022-11-30T15:11:24.782Z,7.42
2022-11-30T15:13:41.791Z,7.45
2022-11-30T15:15:58.767Z,7.44
2022-11-30T15:18:16.133Z,7.37
2022-11-30T15:20:33.542Z,7.35
2022-11-30T15:22:50.600Z,7.34
2022-11-30T15:25:07.964Z,7.32
2022-11-30T15:27:24.907Z,7.28
2022-11-30T15:29:41.959Z,7.27
2022-11-30T15:31:59.152Z,7.32
2022-11-30T15:34:16.276Z,7.26
2022-11-30T15:36:34.057Z,7.29
2022-11-30T15:38:52.880Z,7.30
2022-11-30T15:41:11.112Z,7.26
2022-11-30T15:43:29.407Z,7.20
2022-11-30T15:45:46.342Z,7.23
2022-11-30T15:48:03.855Z,7.25
2022-11-30T15:50:21.826Z,7.21
2022-11-30T15:52:38.865Z,7.23
2022-11-30T15:54:55.792Z,7.20
2022-11-30T15:57:13.111Z,7.15
2022-11-30T15:59:30.055Z,7.15
2022-11-30T16:01:46.998Z,7.13
2022-11-30T16:04:04.116Z,7.12
2022-11-30T16:06:21.190Z,7.12
2022-11-30T16:08:38.256Z,7.13
2022-11-30T16:10:55.325Z,7.11
2022-11-30T16:13:12.314Z,7.09
2022-11-30T16:15:29.533Z,7.09
2022-11-30T16:17:46.448Z,7.14
2022-11-30T16:20:03.892Z,7.14
2022-11-30T16:22:20.990Z,7.15
2022-11-30T16:24:38.021Z,7.12
2022-11-30T16:26:55.325Z,7.10
2022-11-30T16:29:12.874Z,7.08
2022-11-30T16:31:29.857Z,7.10
2022-11-30T16:33:47.200Z,7.09
2022-11-30T16:36:04.182Z,7.08
2022-11-30T16:38:21.442Z,7.05
2022-11-30T16:40:39.383Z,7.03
2022-11-30T16:42:56.632Z,7.03
2022-11-30T16:45:14.855Z,7.02
2022-11-30T16:47:32.011Z,7.07
2022-11-30T16:49:49.270Z,7.07
2022-11-30T16:52:06.492Z,7.06
2022-11-30T16:54:26.213Z,7.02
2022-11-30T16:56:43.091Z,7.01
2022-11-30T16:59:00.184Z,7.02
2022-11-30T17:01:17.322Z,6.96
2022-11-30T17:03:34.699Z,6.96
2022-11-30T17:05:52.594Z,6.99
2022-11-30T17:08:10.020Z,7.01
2022-11-30T17:10:27.085Z,6.94
2022-11-30T17:12:43.973Z,6.95
2022-11-30T17:15:01.400Z,6.93
2022-11-30T17:17:18.838Z,6.94
2022-11-30T17:19:36.167Z,6.97
2022-11-30T17:21:53.371Z,7.02
2022-11-30T17:24:11.433Z,6.97
2022-11-30T17:26:28.420Z,6.94
2022-11-30T17:28:46.659Z,6.93
2022-11-30T17:31:04.025Z,6.92
2022-11-30T17:33:20.922Z,6.97
2022-11-30T17:35:38.505Z,6.93
2022-11-30T17:37:55.542Z,6.92
2022-11-30T17:40:12.425Z,6.93
2022-11-30T17:42:29.464Z,6.90
2022-11-30T17:44:46.832Z,6.89
2022-11-30T17:47:04.270Z,6.91
2022-11-30T17:49:22.269Z,6.93
2022-11-30T17:51:39.513Z,6.92
2022-11-30T17:53:56.883Z,6.93
2022-11-30T17:56:14.141Z,6.91
2022-11-30T17:58:35.341Z,6.91
2022-11-30T18:00:54.266Z,6.91
2022-11-30T18:03:11.598Z,6.91
2022-11-30T18:05:28.822Z,6.99
2022-11-30T18:07:46.261Z,6.92
2022-11-30T18:10:03.593Z,6.89
2022-11-30T18:12:20.598Z,6.93
2022-11-30T18:14:37.595Z,6.92
2022-11-30T18:16:54.654Z,6.90
2022-11-30T18:19:12.750Z,6.95
2022-11-30T18:21:29.811Z,6.94
2022-11-30T18:23:46.821Z,6.91
2022-11-30T18:26:04.175Z,6.91
2022-11-30T18:28:21.225Z,6.91
2022-11-30T18:30:38.617Z,6.91
2022-11-30T18:32:55.981Z,6.89
2022-11-30T18:35:14.043Z,6.88
2022-11-30T18:37:31.046Z,6.87
2022-11-30T18:39:48.728Z,6.87
2022-11-30T18:42:05.755Z,6.88
2022-11-30T18:44:23.665Z,6.89
2022-11-30T18:46:41.111Z,6.95
2022-11-30T18:48:58.221Z,6.94
2022-11-30T18:51:15.448Z,6.94
2022-11-30T18:53:32.756Z,6.93
2022-11-30T18:55:49.724Z,6.92
2022-11-30T18:58:06.682Z,6.92
2022-11-30T19:00:23.996Z,6.89
2022-11-30T19:02:41.959Z,6.90
2022-11-30T19:04:59.398Z,6.87
2022-11-30T19:07:16.394Z,6.87
2022-11-30T19:09:33.267Z,6.87
2022-11-30T19:11:50.302Z,6.89
2022-11-30T19:16:48.848Z,6.88
2022-11-30T19:19:05.964Z,6.91
2022-11-30T19:21:23.256Z,6.91
2022-11-30T19:23:46.031Z,6.88
2022-11-30T19:26:03.301Z,6.88
2022-11-30T19:28:20.282Z,6.88
2022-11-30T19:30:37.183Z,6.86
2022-11-30T19:32:54.225Z,6.85
2022-11-30T19:35:12.211Z,6.86
2022-11-30T19:37:29.048Z,6.85
2022-11-30T19:39:46.054Z,6.87
2022-11-30T19:42:03.268Z,6.87
2022-11-30T19:44:20.481Z,6.84
2022-11-30T19:46:37.451Z,6.93
2022-11-30T19:48:54.833Z,6.88
2022-11-30T19:51:16.306Z,6.90
2022-11-30T19:53:35.137Z,6.89
2022-11-30T19:55:52.706Z,6.84
2022-11-30T19:58:09.638Z,6.83
2022-11-30T20:00:27.425Z,6.83
2022-11-30T20:02:44.460Z,6.82
2022-11-30T20:05:01.511Z,6.81
2022-11-30T20:07:20.953Z,6.82
2022-11-30T20:09:37.890Z,6.81
2022-11-30T20:11:54.970Z,6.82
2022-11-30T20:14:12.799Z,6.84
2022-11-30T20:16:30.288Z,6.83
2022-11-30T20:18:47.301Z,6.84
2022-11-30T20:21:04.429Z,6.84
2022-11-30T20:23:21.432Z,6.81
2022-11-30T20:25:38.718Z,6.82
2022-11-30T20:27:56.064Z,6.82
2022-11-30T20:30:14.063Z,6.83
2022-11-30T20:32:32.437Z,6.83
2022-11-30T20:34:50.566Z,6.84
2022-11-30T20:37:08.092Z,6.83
2022-11-30T20:39:25.330Z,6.84
2022-11-30T20:41:42.345Z,6.81
2022-11-30T20:43:59.315Z,6.79
2022-11-30T20:46:16.318Z,6.78
2022-11-30T20:48:33.324Z,6.77
2022-11-30T20:51:14.088Z,6.82
2022-11-30T20:53:28.267Z,6.80
2022-11-30T20:55:45.358Z,6.79
2022-11-30T20:58:02.241Z,6.76
2022-11-30T21:00:19.550Z,6.76
2022-11-30T21:02:36.880Z,6.73
2022-11-30T21:04:54.006Z,6.74
2022-11-30T21:07:11.094Z,6.72
2022-11-30T21:09:29.153Z,6.74
2022-11-30T21:11:46.377Z,6.72
2022-11-30T21:14:03.444Z,6.71
2022-11-30T21:16:26.849Z,6.71
2022-11-30T21:18:45.260Z,6.69
2022-11-30T21:21:02.885Z,6.70
2022-11-30T21:23:24.831Z,6.73
2022-11-30T21:25:42.877Z,6.72
2022-11-30T21:28:00.265Z,6.68
2022-11-30T21:30:17.347Z,6.71
2022-11-30T21:32:34.382Z,6.68
2022-11-30T21:34:51.397Z,6.67
2022-11-30T21:37:08.481Z,6.67
2022-11-30T21:39:26.571Z,6.65
2022-11-30T21:41:44.483Z,6.65
2022-11-30T21:44:02.496Z,6.65
2022-11-30T21:46:19.626Z,6.63
2022-11-30T21:48:36.577Z,6.62
2022-11-30T21:50:53.609Z,6.63
2022-11-30T21:53:11.593Z,6.65
2022-11-30T21:55:28.717Z,6.63
2022-11-30T21:57:45.834Z,6.62
2022-11-30T22:00:02.768Z,6.64
2022-11-30T22:02:20.024Z,6.64
2022-11-30T22:04:36.852Z,6.62
2022-11-30T22:06:54.747Z,6.65
2022-11-30T22:09:11.994Z,6.64
2022-11-30T22:11:29.236Z,6.62
2022-11-30T22:13:46.531Z,6.63
2022-11-30T22:16:03.796Z,6.61
2022-11-30T22:18:20.769Z,6.62
2022-11-30T22:20:37.793Z,6.62
2022-11-30T22:22:54.817Z,6.61
2022-11-30T22:25:12.058Z,6.61
2022-11-30T22:27:29.016Z,6.63
2022-11-30T22:29:46.146Z,6.63
2022-11-30T22:32:03.271Z,6.64
2022-11-30T22:34:20.341Z,6.63
2022-11-30T22:36:37.666Z,6.65
2022-11-30T22:38:55.008Z,6.66
2022-11-30T22:41:12.879Z,6.67
2022-11-30T22:43:29.873Z,6.65
2022-11-30T22:45:48.234Z,6.64
2022-11-30T22:48:05.164Z,6.66
2022-11-30T22:50:22.511Z,6.67
2022-11-30T22:53:02.000Z,6.64
2022-11-30T22:55:16.818Z,6.64
2022-11-30T22:57:33.885Z,6.63
2022-11-30T22:59:51.163Z,6.63
2022-11-30T23:02:08.177Z,6.62
2022-11-30T23:04:25.299Z,6.63
2022-11-30T23:06:42.325Z,6.62
2022-11-30T23:09:00.237Z,6.61
2022-11-30T23:11:17.488Z,6.63
2022-11-30T23:13:34.770Z,6.61
2022-11-30T23:15:51.800Z,6.60
2022-11-30T23:18:09.111Z,6.62
2022-11-30T23:20:26.146Z,6.61
2022-11-30T23:22:43.270Z,6.62
2022-11-30T23:25:00.357Z,6.61
2022-11-30T23:27:17.808Z,6.63
2022-11-30T23:29:36.123Z,6.64
2022-11-30T23:31:53.172Z,6.66
2022-11-30T23:34:10.391Z,6.64
2022-11-30T23:36:27.660Z,6.64
2022-11-30T23:38:44.634Z,6.67
2022-11-30T23:41:01.715Z,6.65
2022-11-30T23:43:18.758Z,6.64
2022-11-30T23:45:35.694Z,6.66
2022-11-30T23:47:55.496Z,6.65
2022-11-30T23:50:13.837Z,6.65
2022-11-30T23:52:30.899Z,6.65
2022-11-30T23:54:48.203Z,6.64
2022-11-30T23:57:05.462Z,6.65
2022-11-30T23:59:22.463Z,6.65
